首页
METAR-TAF:

METAR-TAF

机场 :

休斯敦 / Conroe, 得克萨斯州, 美国

纬度: 30-21-24N, 经度: 095-24-50W, 海拔: 74米

当前天气观测

该预报发布于18分钟前的01:40 UTC
风速6节,风向东转东南
温度 24°C
湿度 89%
气压 1015 hPa
能見度: 16.1公里
散云层高于2300英尺
多云层高于3000英尺
阴天层高于6000英尺

METAR: KCXO 200140Z 12006KT 10SM SCT023 BKN030 OVC060 24/22 A2998 RMK AO2 T02440217

时间: 20:58 (01:58 UTC)

预报

该预报发布于2小时和38分钟前的23:20 UTC
预报有效从20日的 00点(UTC)到 20日的 24点(UTC)
风速7节,风向
能見度: 10公里
散云层高于2500英尺
多云层高于4000英尺
附近有阵雨
从 20日的 0200点(UTC)
风速4节,风向东转东北
能見度: 10公里
阴天层高于2500英尺
附近有阵雨
从 20日的 0600点(UTC)
风速4节,风向东南
能見度: 9.7公里
阴天层高于1500英尺
轻雾
从 20日的 0900点(UTC)
风速3节,风向
能見度: 6.4公里
阴天层高于700英尺
轻雾
从 20日的 1900点(UTC)
风速7节,风向
能見度: 4.8公里
阴天层高于1500英尺
小雨, 轻雾
从 20日的 2200点(UTC)
风速7节,风向
能見度: 3.2公里
阴天层高于1500英尺, 积雨云.
小雨, 附近有雷暴,

TAF: KCXO 192320Z 2000/2024 09007KT P6SM VCSH SCT025 BKN040 FM200200 06004KT P6SM VCSH OVC025 FM200600 13004KT 6SM BR OVC015 FM200900 10003KT 4SM BR OVC007 FM201900 10007KT 3SM -RA BR OVC015 FM202200 09007KT 2SM -RA VCTS OVC015CB

超过4000个机场的气象观测和天气预报(METAR&TAF报告)。

可查询的气象台以黄色和红色小点在地图上表示。

将鼠标移到小点上方,可查看气象台名称。

然后点击查看天气观测和预报。

如需切换地图:点击带黑十字的绿色按钮放大地图;点击带横线的绿色按钮缩小地图;或者点击绿色箭头查看邻近地区的地图。


METAR-TAF: